Time;durP1;ratioP1;P1;durP2;ratioP2;P2;SDS_P1;SDS_P2;PMS_P1;PMS_P2;Temp;Humidity;BMP_temperature;BMP_pressure;BME280_temperature;BME280_humidity;BME280_pressure;Samples;Min_cycle;Max_cycle;Signal;HPM_P1;HPM_P2
2023/07/31 00:01:35;;;;;;;2.88;1.38;;;;;;;15.51;100.00;100289.16;4939605;29;20039;-84
2023/07/31 00:04:06;;;;;;;2.03;1.58;;;;;;;15.51;100.00;100292.69;4936063;29;20044;-83
2023/07/31 00:06:33;;;;;;;1.92;1.63;;;;;;;15.51;100.00;100273.34;4927087;29;20044;-82
2023/07/31 00:08:59;;;;;;;3.60;1.15;;;;;;;15.51;100.00;100270.69;4915240;29;20075;-82
2023/07/31 00:11:26;;;;;;;5.10;1.83;;;;;;;15.50;100.00;100276.88;4922620;29;20054;-83
2023/07/31 00:13:54;;;;;;;1.83;1.10;;;;;;;15.49;100.00;100269.91;4922620;29;20111;-82
2023/07/31 00:16:21;;;;;;;1.20;1.00;;;;;;;15.50;100.00;100268.97;4937880;29;20051;-82
2023/07/31 00:18:47;;;;;;;3.35;1.80;;;;;;;15.54;100.00;100268.81;4921653;29;20047;-82
2023/07/31 00:21:16;;;;;;;2.97;1.83;;;;;;;15.62;100.00;100271.19;4939399;29;20056;-82
2023/07/31 00:23:42;;;;;;;1.30;1.17;;;;;;;15.67;100.00;100266.59;4922845;29;20039;-81
2023/07/31 00:26:09;;;;;;;1.45;1.35;;;;;;;15.66;100.00;100278.06;4937227;29;20036;-82
2023/07/31 00:28:36;;;;;;;2.22;1.35;;;;;;;15.70;100.00;100277.03;4938699;29;20039;-83
2023/07/31 00:31:03;;;;;;;2.80;1.00;;;;;;;15.70;100.00;100271.75;4948210;29;20044;-81
2023/07/31 00:33:31;;;;;;;2.45;1.23;;;;;;;15.71;100.00;100273.50;4938266;29;20043;-87
2023/07/31 00:35:58;;;;;;;1.17;1.10;;;;;;;15.72;100.00;100269.06;4947939;29;20063;-82
2023/07/31 00:38:24;;;;;;;2.35;1.75;;;;;;;15.74;100.00;100271.66;4935405;29;20055;-82
2023/07/31 00:40:51;;;;;;;1.70;1.05;;;;;;;15.74;100.00;100271.66;4940385;29;20089;-83
2023/07/31 00:43:19;;;;;;;1.65;1.40;;;;;;;15.73;100.00;100270.78;4936843;29;20071;-83
2023/07/31 00:45:45;;;;;;;2.03;1.00;;;;;;;15.68;100.00;100265.69;4932683;29;20526;-84
2023/07/31 00:48:12;;;;;;;2.97;1.23;;;;;;;15.67;100.00;100258.69;4902338;29;20044;-82
2023/07/31 00:50:39;;;;;;;3.38;1.45;;;;;;;15.65;100.00;100249.97;4933608;29;20091;-84
2023/07/31 00:53:06;;;;;;;2.50;1.67;;;;;;;15.62;100.00;100255.34;4933999;29;20047;-85
2023/07/31 00:55:33;;;;;;;2.05;1.55;;;;;;;15.61;100.00;100243.06;4916520;29;20098;-83
2023/07/31 00:57:59;;;;;;;2.50;1.98;;;;;;;15.59;100.00;100242.28;4917262;29;20134;-82
2023/07/31 01:00:26;;;;;;;3.70;0.90;;;;;;;15.57;100.00;100237.97;4933603;29;20043;-84
2023/07/31 01:02:53;;;;;;;1.45;0.90;;;;;;;15.58;100.00;100232.66;4910707;29;20403;-82
2023/07/31 01:05:49;;;;;;;2.92;1.20;;;;;;;15.63;100.00;100241.25;4928162;29;20052;-82
2023/07/31 01:08:44;;;;;;;2.22;1.02;;;;;;;15.63;100.00;100219.25;4933046;29;20097;-84
2023/07/31 01:11:27;;;;;;;1.02;1.00;;;;;;;15.64;100.00;100215.72;4928566;29;20067;-88
2023/07/31 01:13:55;;;;;;;1.48;1.05;;;;;;;15.65;100.00;100204.25;4931715;29;20122;-83
2023/07/31 01:16:22;;;;;;;3.92;1.35;;;;;;;15.63;100.00;100211.34;4933768;29;20067;-82
2023/07/31 01:18:49;;;;;;;3.88;1.25;;;;;;;15.57;100.00;100207.16;4923863;29;20035;-82
2023/07/31 01:21:36;;;;;;;8.93;1.33;;;;;;;15.54;100.00;100200.22;4934154;29;20074;-82
2023/07/31 01:24:23;;;;;;;2.53;1.02;;;;;;;15.54;100.00;100191.47;4935612;29;20032;-83
2023/07/31 01:26:59;;;;;;;0.85;0.55;;;;;;;15.52;100.00;100203.84;4936072;29;20055;-82
2023/07/31 01:29:49;;;;;;;0.65;0.60;;;;;;;15.47;100.00;100201.34;4937549;29;20047;-82
2023/07/31 01:32:19;;;;;;;1.15;0.60;;;;;;;15.44;100.00;100196.22;4940170;29;20043;-82
2023/07/31 01:34:47;;;;;;;2.30;0.95;;;;;;;15.42;100.00;100194.53;4935509;29;20055;-83
2023/07/31 01:37:14;;;;;;;0.85;0.60;;;;;;;15.39;100.00;100191.09;4936861;29;20487;-81
2023/07/31 01:39:40;;;;;;;2.45;0.80;;;;;;;15.39;100.00;100190.22;4935798;29;20059;-82
2023/07/31 01:42:07;;;;;;;1.73;0.80;;;;;;;15.37;100.00;100182.38;4923050;29;20062;-84
2023/07/31 01:44:34;;;;;;;1.40;1.10;;;;;;;15.37;100.00;100171.00;4940139;29;20044;-85
2023/07/31 01:47:00;;;;;;;1.90;1.45;;;;;;;15.36;100.00;100164.84;4928878;29;20074;-82
2023/07/31 01:49:27;;;;;;;2.92;1.25;;;;;;;15.36;100.00;100164.00;4935040;28;20094;-82
2023/07/31 01:51:54;;;;;;;1.75;1.02;;;;;;;15.33;100.00;100164.97;4946099;28;20043;-82
2023/07/31 01:54:20;;;;;;;2.67;0.90;;;;;;;15.33;100.00;100170.22;4936984;29;20050;-83
2023/07/31 01:56:46;;;;;;;0.65;0.65;;;;;;;15.32;100.00;100165.03;4935791;29;20044;-82
2023/07/31 01:59:13;;;;;;;1.95;0.70;;;;;;;15.32;100.00;100160.59;4940195;29;20083;-82
2023/07/31 02:01:40;;;;;;;3.13;1.00;;;;;;;15.30;100.00;100162.41;4929185;29;20185;-87
2023/07/31 02:04:06;;;;;;;2.33;0.60;;;;;;;15.29;100.00;100167.75;4931480;29;20062;-84
2023/07/31 02:06:33;;;;;;;3.40;0.80;;;;;;;15.25;100.00;100159.09;4950178;28;20035;-83
2023/07/31 02:08:59;;;;;;;1.42;0.85;;;;;;;15.26;100.00;100160.81;4941526;29;20047;-82
2023/07/31 02:11:26;;;;;;;0.60;0.60;;;;;;;15.27;100.00;100159.91;4919626;29;20055;-82
2023/07/31 02:13:52;;;;;;;1.77;0.50;;;;;;;15.28;100.00;100158.13;4952082;28;20035;-83
2023/07/31 02:16:19;;;;;;;3.50;0.70;;;;;;;15.29;100.00;100163.34;4947576;28;20031;-82
2023/07/31 02:18:46;;;;;;;1.67;0.65;;;;;;;15.30;100.00;100157.13;4925976;28;20050;-82
2023/07/31 02:21:12;;;;;;;3.60;0.70;;;;;;;15.34;100.00;100149.97;4928485;29;20043;-83
2023/07/31 02:23:39;;;;;;;0.55;0.38;;;;;;;15.34;100.00;100150.88;4935825;29;20372;-82
2023/07/31 02:26:06;;;;;;;0.68;0.38;;;;;;;15.33;100.00;100142.97;4935246;29;20082;-86
2023/07/31 02:28:32;;;;;;;0.63;0.30;;;;;;;15.30;100.00;100135.19;4924433;29;20098;-83
2023/07/31 02:30:59;;;;;;;1.58;0.40;;;;;;;15.29;100.00;100130.84;4931267;28;20608;-83
2023/07/31 02:33:25;;;;;;;1.92;0.45;;;;;;;15.29;100.00;100134.34;4939990;29;20047;-82
2023/07/31 02:35:52;;;;;;;1.65;0.70;;;;;;;15.30;100.00;100130.78;4928830;29;20057;-84
2023/07/31 02:38:18;;;;;;;1.35;0.50;;;;;;;15.31;100.00;100131.66;4921238;29;20131;-85
2023/07/31 02:40:45;;;;;;;0.95;0.45;;;;;;;15.29;100.00;100137.00;4939808;29;20039;-82
2023/07/31 02:43:12;;;;;;;0.98;0.30;;;;;;;15.25;100.00;100131.88;4930151;29;20051;-81
2023/07/31 02:45:38;;;;;;;0.38;0.38;;;;;;;15.19;100.00;100132.97;4936363;28;20050;-83
2023/07/31 02:48:05;;;;;;;1.92;0.68;;;;;;;15.16;100.00;100130.41;4919388;29;20539;-83
2023/07/31 02:50:32;;;;;;;2.42;0.55;;;;;;;15.14;100.00;100127.00;4932275;28;20059;-85
2023/07/31 02:52:58;;;;;;;1.40;0.93;;;;;;;15.16;100.00;100133.06;4918656;29;20091;-84
2023/07/31 02:55:25;;;;;;;0.17;0.17;;;;;;;15.12;100.00;100126.19;4949676;28;20043;-83
2023/07/31 02:57:52;;;;;;;0.45;0.45;;;;;;;15.12;100.00;100123.53;4925446;28;20058;-82
2023/07/31 03:00:18;;;;;;;0.68;0.68;;;;;;;15.13;100.00;100117.34;4923855;28;20478;-83
2023/07/31 03:02:45;;;;;;;0.40;0.40;;;;;;;15.17;100.00;100125.09;4920904;28;20146;-82
2023/07/31 03:05:11;;;;;;;0.65;0.35;;;;;;;15.18;100.00;100118.06;4936670;29;20095;-82
2023/07/31 03:07:38;;;;;;;0.93;0.30;;;;;;;15.15;100.00;100120.81;4933859;28;20424;-83
2023/07/31 03:10:05;;;;;;;0.75;0.10;;;;;;;15.10;100.00;100120.13;4933846;29;20035;-86
2023/07/31 03:12:32;;;;;;;0.32;0.30;;;;;;;15.07;100.00;100121.09;4917468;29;20035;-88
2023/07/31 03:14:58;;;;;;;1.35;0.30;;;;;;;15.06;100.00;100132.53;4915494;29;20058;-82
2023/07/31 03:17:25;;;;;;;0.50;0.50;;;;;;;15.04;100.00;100126.44;4931108;28;20488;-83
2023/07/31 03:19:51;;;;;;;0.65;0.30;;;;;;;15.02;100.00;100133.56;4912629;28;20062;-85
2023/07/31 03:22:18;;;;;;;1.45;0.40;;;;;;;15.03;100.00;100133.50;4939403;28;20047;-84
2023/07/31 03:24:44;;;;;;;0.73;0.30;;;;;;;15.02;100.00;100129.16;4936615;28;20046;-85
2023/07/31 03:27:11;;;;;;;1.08;0.50;;;;;;;15.03;100.00;100135.28;4933827;28;20043;-83
2023/07/31 03:29:37;;;;;;;0.50;0.25;;;;;;;15.02;100.00;100134.41;4916148;29;20150;-83
2023/07/31 03:32:04;;;;;;;0.40;0.40;;;;;;;15.02;100.00;100133.56;4937542;28;20035;-82
2023/07/31 03:34:31;;;;;;;2.58;0.45;;;;;;;15.00;100.00;100136.25;4937581;29;20476;-86
2023/07/31 03:37:01;;;;;;;0.50;0.40;;;;;;;14.98;100.00;100131.94;4933882;28;20059;-83
2023/07/31 03:39:28;;;;;;;1.45;0.43;;;;;;;15.00;100.00;100133.59;4939087;29;20043;-89
2023/07/31 03:41:54;;;;;;;0.80;0.80;;;;;;;15.03;100.00;100130.00;4940456;29;20042;-82
2023/07/31 03:44:21;;;;;;;0.90;0.90;;;;;;;15.05;100.00;100123.75;4941721;28;20043;-82
2023/07/31 03:46:47;;;;;;;5.15;3.92;;;;;;;15.05;100.00;100120.28;4945302;29;20078;-83
2023/07/31 03:49:14;;;;;;;2.00;0.82;;;;;;;15.08;100.00;100119.31;4932076;29;20103;-83
2023/07/31 03:51:41;;;;;;;2.83;0.52;;;;;;;15.06;100.00;100124.63;4933319;29;20048;-84
2023/07/31 03:54:08;;;;;;;1.48;0.52;;;;;;;15.04;100.00;100129.97;4921598;29;20057;-85
2023/07/31 03:56:35;;;;;;;1.60;0.70;;;;;;;15.02;100.00;100121.25;4922630;28;20043;-85
2023/07/31 03:59:01;;;;;;;1.98;0.63;;;;;;;15.01;100.00;100111.59;4941850;29;20078;-83
2023/07/31 04:01:28;;;;;;;0.90;0.50;;;;;;;14.98;100.00;100121.41;4930091;28;20046;-83
2023/07/31 04:03:54;;;;;;;0.77;0.40;;;;;;;14.91;100.00;100122.53;4929118;28;20047;-83
2023/07/31 04:06:21;;;;;;;1.65;0.30;;;;;;;14.88;100.00;100119.09;4941675;29;20043;-83
2023/07/31 04:08:47;;;;;;;1.58;0.60;;;;;;;14.83;100.00;100117.53;4932956;28;20061;-87
2023/07/31 04:11:15;;;;;;;0.60;0.60;;;;;;;14.80;100.00;100115.03;4952670;28;20043;-82
2023/07/31 04:13:42;;;;;;;0.80;0.75;;;;;;;14.77;100.00;100116.00;4940251;28;20054;-82
2023/07/31 04:16:09;;;;;;;0.77;0.57;;;;;;;14.77;100.00;100112.47;4935834;29;20043;-85
2023/07/31 04:18:35;;;;;;;0.65;0.47;;;;;;;14.75;100.00;100114.31;4933308;28;20043;-84
2023/07/31 04:21:02;;;;;;;0.95;0.60;;;;;;;14.78;100.00;100116.84;4934388;29;20399;-82
2023/07/31 04:23:29;;;;;;;0.80;0.65;;;;;;;14.78;100.00;100116.84;4922428;28;20451;-93
2023/07/31 04:25:55;;;;;;;1.15;0.70;;;;;;;14.76;100.00;100113.38;4933998;29;20451;-85
2023/07/31 04:28:22;;;;;;;2.63;1.30;;;;;;;14.83;100.00;100107.00;4935021;29;20106;-83
2023/07/31 04:30:48;;;;;;;0.90;0.68;;;;;;;14.89;100.00;100106.78;4934889;29;20046;-87
2023/07/31 04:33:15;;;;;;;0.50;0.50;;;;;;;14.97;100.00;100110.00;4919024;29;20138;-85
2023/07/31 04:35:41;;;;;;;0.60;0.60;;;;;;;15.01;100.00;100106.34;4933256;28;20051;-83
2023/07/31 04:38:08;;;;;;;1.65;0.70;;;;;;;14.99;100.00;100102.91;4934635;29;20163;-85
2023/07/31 04:40:35;;;;;;;0.68;0.52;;;;;;;15.00;100.00;100116.94;4936134;28;20041;-84
2023/07/31 04:43:01;;;;;;;1.33;0.70;;;;;;;14.98;100.00;100109.09;4917907;29;20039;-82
2023/07/31 04:45:28;;;;;;;0.70;0.70;;;;;;;14.96;100.00;100105.63;4929829;28;20063;-82
2023/07/31 04:47:54;;;;;;;0.45;0.45;;;;;;;14.93;100.00;100099.59;4934339;29;20048;-88
2023/07/31 04:50:21;;;;;;;1.00;0.40;;;;;;;14.85;100.00;100103.41;4922765;29;20043;-84
2023/07/31 04:52:48;;;;;;;0.90;0.40;;;;;;;14.81;100.00;100100.91;4931989;28;20052;-81
2023/07/31 04:55:15;;;;;;;0.50;0.50;;;;;;;14.76;100.00;100095.81;4935293;28;20337;-82
2023/07/31 04:57:41;;;;;;;0.57;0.57;;;;;;;14.74;100.00;100095.00;4926247;28;20039;-83
2023/07/31 05:00:09;;;;;;;1.92;0.70;;;;;;;14.74;100.00;100096.78;4938403;29;20047;-82
2023/07/31 05:02:35;;;;;;;0.70;0.65;;;;;;;14.72;100.00;100096.84;4932827;28;20504;-88
2023/07/31 05:05:02;;;;;;;1.60;0.57;;;;;;;14.70;100.00;100096.88;4932007;29;20035;-83
2023/07/31 05:07:31;;;;;;;1.33;0.28;;;;;;;14.68;100.00;100088.19;4932752;28;20135;-95
2023/07/31 05:09:58;;;;;;;1.20;0.35;;;;;;;14.69;100.00;100078.50;4931447;29;20047;-83
2023/07/31 05:12:24;;;;;;;0.30;0.30;;;;;;;14.69;100.00;100083.75;4933472;29;20044;-83
2023/07/31 05:14:53;;;;;;;0.68;0.20;;;;;;;14.65;100.00;100079.53;4922450;29;20416;-82
2023/07/31 05:17:20;;;;;;;0.20;0.20;;;;;;;14.57;100.00;100082.38;4922379;28;20147;-83
2023/07/31 05:19:46;;;;;;;0.22;0.22;;;;;;;14.59;100.00;100083.22;4942137;28;20129;-87
2023/07/31 05:22:13;;;;;;;0.57;0.20;;;;;;;14.62;100.00;100071.72;4945738;28;20492;-82
2023/07/31 05:24:39;;;;;;;0.30;0.30;;;;;;;14.68;100.00;100077.66;4933318;28;20136;-84
2023/07/31 05:27:09;;;;;;;0.52;0.47;;;;;;;14.71;100.00;100074.91;4937264;29;20490;-87
2023/07/31 05:29:36;;;;;;;0.52;0.30;;;;;;;14.72;100.00;100075.78;4937623;29;20055;-82
2023/07/31 05:32:02;;;;;;;0.55;0.50;;;;;;;14.69;100.00;100068.84;4938368;29;20047;-84
2023/07/31 05:34:29;;;;;;;1.15;0.45;;;;;;;14.72;100.00;100078.41;4918391;29;20059;-85
2023/07/31 05:36:55;;;;;;;1.25;0.65;;;;;;;14.74;100.00;100071.28;4938102;29;20066;-83
2023/07/31 05:39:22;;;;;;;0.80;0.80;;;;;;;14.80;100.00;100067.59;4938219;28;20056;-84
2023/07/31 05:41:49;;;;;;;1.40;1.30;;;;;;;14.82;100.00;100068.38;4934019;29;20069;-85
2023/07/31 05:44:15;;;;;;;4.00;2.30;;;;;;;14.86;100.00;100062.97;4943470;29;20070;-82
2023/07/31 05:46:42;;;;;;;3.33;2.25;;;;;;;14.85;100.00;100058.59;4936919;28;20051;-82
2023/07/31 05:49:09;;;;;;;4.55;3.65;;;;;;;14.83;100.00;100062.22;4951243;28;20106;-85
2023/07/31 05:51:35;;;;;;;3.50;3.25;;;;;;;14.80;100.00;100062.31;4927676;28;20085;-83
2023/07/31 05:54:01;;;;;;;6.72;4.65;;;;;;;14.82;100.00;100057.84;4922201;29;20054;-83
2023/07/31 05:56:28;;;;;;;6.43;4.93;;;;;;;14.85;100.00;100055.13;4937543;29;20050;-88
2023/07/31 05:58:56;;;;;;;5.72;5.03;;;;;;;14.85;100.00;100055.97;4935714;29;20047;-81
2023/07/31 06:01:23;;;;;;;6.47;4.82;;;;;;;14.87;100.00;100055.91;4945909;29;20059;-89
2023/07/31 06:03:50;;;;;;;9.07;5.00;;;;;;;14.89;100.00;100056.72;4922274;29;20439;-82
2023/07/31 06:06:17;;;;;;;8.52;6.05;;;;;;;14.95;100.00;100048.56;4932648;29;20409;-82
2023/07/31 06:08:43;;;;;;;8.40;6.05;;;;;;;14.98;100.00;100052.88;4939545;29;20044;-81
2023/07/31 06:11:10;;;;;;;6.63;5.80;;;;;;;15.00;100.00;100054.53;4946317;29;20126;-86
2023/07/31 06:13:36;;;;;;;8.75;6.65;;;;;;;15.05;100.00;100052.59;4936399;28;20040;-84
2023/07/31 06:16:05;;;;;;;9.90;6.78;;;;;;;15.09;100.00;100050.69;4940893;28;20099;-81
2023/07/31 06:18:33;;;;;;;8.45;6.53;;;;;;;15.13;100.00;100054.94;4937167;29;20062;-80
2023/07/31 06:21:00;;;;;;;11.50;8.45;;;;;;;15.15;100.00;100047.84;4917718;29;20048;-82
2023/07/31 06:23:27;;;;;;;11.10;7.13;;;;;;;15.16;100.00;100049.56;4936809;28;20435;-85
2023/07/31 06:25:53;;;;;;;7.43;6.72;;;;;;;15.14;100.00;100047.91;4941629;28;20122;-82
2023/07/31 06:28:20;;;;;;;7.82;5.97;;;;;;;15.12;100.00;100044.47;4938943;29;20083;-82
2023/07/31 06:30:47;;;;;;;8.68;6.57;;;;;;;15.15;100.00;100047.00;4938317;28;20085;-81
2023/07/31 06:33:13;;;;;;;10.85;6.57;;;;;;;15.18;100.00;100045.09;4927345;29;20057;-82
2023/07/31 06:35:40;;;;;;;8.27;6.30;;;;;;;15.19;100.00;100051.22;4935075;28;20142;-84
2023/07/31 06:38:07;;;;;;;11.25;6.32;;;;;;;15.17;100.00;100056.53;4936733;29;20122;-82
2023/07/31 06:40:33;;;;;;;8.07;5.70;;;;;;;15.16;100.00;100049.56;4936865;29;20537;-84
2023/07/31 06:43:06;;;;;;;9.00;6.90;;;;;;;15.08;100.00;100048.97;4936298;29;20051;-84
2023/07/31 06:45:32;;;;;;;7.85;6.30;;;;;;;15.05;100.00;100055.22;4930929;29;20039;-83
2023/07/31 06:48:01;;;;;;;10.95;6.72;;;;;;;15.00;100.00;100054.53;4935652;29;20106;-85
2023/07/31 06:50:28;;;;;;;8.13;6.03;;;;;;;14.99;100.00;100058.09;4940593;29;20031;-84
2023/07/31 06:52:55;;;;;;;9.25;6.85;;;;;;;14.98;100.00;100051.13;4918514;29;20079;-84
2023/07/31 06:55:22;;;;;;;8.02;6.53;;;;;;;14.92;100.00;100048.69;4921452;28;20047;-86
2023/07/31 06:57:50;;;;;;;10.20;7.30;;;;;;;14.90;100.00;100061.09;4930252;28;20041;-83
2023/07/31 07:00:18;;;;;;;10.40;6.68;;;;;;;14.90;100.00;100058.44;4920900;29;20054;-84
2023/07/31 07:02:47;;;;;;;13.13;7.28;;;;;;;14.87;100.00;100045.38;4926640;29;20126;-83
2023/07/31 07:05:14;;;;;;;11.73;8.55;;;;;;;14.78;100.00;100059.72;4920868;29;20051;-84
2023/07/31 07:07:41;;;;;;;14.40;7.75;;;;;;;14.79;100.00;100052.69;4934500;29;20090;-83
2023/07/31 07:10:09;;;;;;;14.13;8.38;;;;;;;14.81;100.00;100046.47;4936006;28;20181;-86
2023/07/31 07:12:36;;;;;;;12.25;8.73;;;;;;;14.82;100.00;100040.28;4951718;28;20069;-83
2023/07/31 07:15:03;;;;;;;15.75;10.02;;;;;;;14.87;100.00;100040.97;4934842;29;20779;-86
2023/07/31 07:17:32;;;;;;;17.50;9.75;;;;;;;14.88;100.00;100037.41;4931810;29;20079;-83
2023/07/31 07:19:59;;;;;;;17.92;10.40;;;;;;;14.89;100.00;100041.75;4935770;29;20067;-82
2023/07/31 07:22:26;;;;;;;13.57;9.20;;;;;;;14.93;100.00;100049.53;4935195;29;20050;-83
2023/07/31 07:24:54;;;;;;;16.17;9.95;;;;;;;14.98;100.00;100063.41;4932376;28;20498;-84
2023/07/31 07:27:20;;;;;;;23.60;11.32;;;;;;;15.04;100.00;100053.53;4924176;29;20055;-82
2023/07/31 07:29:47;;;;;;;15.57;10.50;;;;;;;15.15;100.00;100055.75;4937392;28;20043;-83
2023/07/31 07:32:14;;;;;;;13.32;10.45;;;;;;;15.27;100.00;100058.84;4935968;29;20045;-82
2023/07/31 07:34:41;;;;;;;13.75;9.23;;;;;;;15.41;100.00;100056.53;4921299;28;20040;-86
2023/07/31 07:37:08;;;;;;;16.38;10.50;;;;;;;15.55;100.00;100054.22;4932098;28;20059;-89
2023/07/31 07:39:34;;;;;;;17.98;9.95;;;;;;;15.77;100.00;100048.06;4938077;28;20074;-86
2023/07/31 07:42:01;;;;;;;12.68;9.32;;;;;;;16.02;100.00;100044.47;4934415;29;20031;-81
2023/07/31 07:44:28;;;;;;;11.00;9.38;;;;;;;16.20;100.00;100041.09;4932049;29;20055;-84
2023/07/31 07:46:55;;;;;;;14.13;8.35;;;;;;;16.32;100.00;100050.28;4919266;29;20086;-82
2023/07/31 07:49:22;;;;;;;9.10;7.47;;;;;;;16.37;100.00;100050.94;4929663;29;20148;-83
2023/07/31 07:51:49;;;;;;;16.17;8.45;;;;;;;16.46;100.00;100044.38;4936205;28;20129;-84
2023/07/31 07:54:17;;;;;;;15.38;7.65;;;;;;;16.61;100.00;100037.56;4928642;28;20043;-83
2023/07/31 07:56:44;;;;;;;12.88;6.63;;;;;;;16.73;100.00;100030.88;4927709;28;20066;-83
2023/07/31 07:59:12;;;;;;;9.05;6.65;;;;;;;16.93;100.00;100024.72;4935212;29;20043;-82
2023/07/31 08:01:38;;;;;;;17.27;8.45;;;;;;;17.08;100.00;100032.88;4941243;29;20039;-82
2023/07/31 08:04:05;;;;;;;8.93;6.18;;;;;;;17.11;100.00;100033.59;4933805;29;20512;-81
2023/07/31 08:06:33;;;;;;;8.13;5.63;;;;;;;17.12;100.00;100051.19;4934088;28;20043;-82
2023/07/31 08:09:06;;;;;;;11.07;5.85;;;;;;;17.10;100.00;100053.03;4925691;29;20046;-82
2023/07/31 08:11:35;;;;;;;9.48;4.82;;;;;;;17.00;100.00;100047.31;4944659;29;20106;-82
2023/07/31 08:14:02;;;;;;;10.93;5.28;;;;;;;17.06;100.00;100050.63;4927375;29;20058;-82
2023/07/31 08:16:29;;;;;;;9.63;5.18;;;;;;;17.07;100.00;100054.97;4928559;29;20051;-84
2023/07/31 08:18:55;;;;;;;11.68;4.93;;;;;;;17.06;100.00;100040.88;4912489;29;20074;-81
2023/07/31 08:21:24;;;;;;;6.15;4.65;;;;;;;17.15;100.00;100050.19;4917120;29;20059;-80
2023/07/31 08:23:51;;;;;;;7.28;4.28;;;;;;;17.11;100.00;100044.19;4921525;29;20103;-80
2023/07/31 08:26:18;;;;;;;8.68;4.50;;;;;;;17.16;100.00;100049.28;4937928;29;20049;-81
2023/07/31 08:28:45;;;;;;;10.30;4.50;;;;;;;17.19;100.00;100054.41;4936282;29;20071;-81
2023/07/31 08:31:16;;;;;;;8.23;4.28;;;;;;;17.08;100.00;100049.63;4934936;29;20046;-82
2023/07/31 08:33:46;;;;;;;6.43;4.63;;;;;;;17.12;100.00;100042.41;4915391;29;20046;-81
2023/07/31 08:36:15;;;;;;;7.10;4.82;;;;;;;17.18;100.00;100042.09;4886211;29;1023302;-84
2023/07/31 08:38:42;;;;;;;8.25;4.95;;;;;;;17.24;100.00;100036.53;4940466;29;20068;-88
2023/07/31 08:41:13;;;;;;;7.95;4.45;;;;;;;17.04;100.00;100034.84;4918954;29;20055;-81
2023/07/31 08:43:40;;;;;;;7.55;4.32;;;;;;;16.87;100.00;100030.28;4931824;29;20134;-83
2023/07/31 08:46:08;;;;;;;10.80;4.65;;;;;;;16.78;100.00;100022.72;4932915;29;20073;-81
2023/07/31 08:48:36;;;;;;;6.43;5.03;;;;;;;16.69;100.00;100031.94;4936737;29;20491;-85
2023/07/31 08:51:04;;;;;;;8.38;4.93;;;;;;;16.66;100.00;100026.78;4941614;29;20479;-81
2023/07/31 08:53:34;;;;;;;6.78;4.38;;;;;;;16.72;100.00;100015.09;4920455;29;20140;-80
2023/07/31 08:56:01;;;;;;;6.65;4.32;;;;;;;16.89;100.00;100019.63;4930722;29;20048;-81
2023/07/31 08:58:33;;;;;;;9.07;4.57;;;;;;;17.08;100.00;100017.88;4939656;29;20043;-79
2023/07/31 09:01:02;;;;;;;7.60;4.50;;;;;;;17.31;100.00;100022.13;4919353;29;20049;-82
2023/07/31 09:03:36;;;;;;;7.25;4.22;;;;;;;17.37;100.00;100020.94;4939172;29;20049;-82
2023/07/31 09:06:04;;;;;;;7.22;4.57;;;;;;;17.34;100.00;100016.66;4938754;29;20039;-82
2023/07/31 09:08:32;;;;;;;6.55;4.15;;;;;;;17.27;100.00;100014.38;4935709;29;20083;-83
2023/07/31 09:11:04;;;;;;;5.55;4.07;;;;;;;17.25;100.00;100014.47;4936962;29;20501;-80
2023/07/31 09:13:32;;;;;;;6.90;4.50;;;;;;;17.40;100.00;100018.16;4931265;28;20062;-82
2023/07/31 09:15:59;;;;;;;6.68;4.20;;;;;;;17.68;100.00;100015.03;4932489;29;20105;-81
2023/07/31 09:18:27;;;;;;;5.30;4.25;;;;;;;17.92;100.00;100004.16;4930415;29;20550;-82
2023/07/31 09:21:07;;;;;;;7.40;3.92;;;;;;;17.91;100.00;100001.59;4938187;29;20391;-81
2023/07/31 09:23:44;;;;;;;6.22;4.03;;;;;;;17.93;100.00;100005.91;4916702;29;20711;-82
2023/07/31 09:26:11;;;;;;;7.10;2.97;;;;;;;17.81;100.00;100003.88;4918447;29;20110;-83
2023/07/31 09:28:38;;;;;;;4.75;3.13;;;;;;;17.74;100.00;100002.44;4937687;29;20242;-85
2023/07/31 09:31:05;;;;;;;7.28;3.70;;;;;;;17.63;100.00;99998.53;4931905;28;20051;-82
2023/07/31 09:33:32;;;;;;;4.57;2.17;;;;;;;17.63;100.00;99997.69;4954769;29;20130;-81
2023/07/31 09:36:05;;;;;;;5.38;3.78;;;;;;;17.66;100.00;99989.56;4924062;28;20055;-81
2023/07/31 09:38:31;;;;;;;6.38;3.00;;;;;;;17.77;100.00;99992.56;4938664;28;20039;-81
2023/07/31 09:40:59;;;;;;;3.95;2.55;;;;;;;17.81;100.00;99994.13;4953613;28;20598;-81
2023/07/31 09:43:27;;;;;;;2.00;1.75;;;;;;;17.77;100.00;99987.28;4935820;29;20058;-82
2023/07/31 09:45:59;;;;;;;4.30;3.13;;;;;;;17.77;100.00;99989.91;4922951;29;21627;-81
2023/07/31 09:48:30;;;;;;;2.70;1.83;;;;;;;17.83;100.00;99989.63;4921313;29;20058;-83
2023/07/31 09:50:56;;;;;;;1.83;1.73;;;;;;;17.90;100.00;99960.16;4921045;29;20102;-82
2023/07/31 09:53:31;;;;;;;2.08;1.77;;;;;;;17.75;100.00;99982.97;4924531;28;20074;-82
2023/07/31 09:56:00;;;;;;;1.27;1.27;;;;;;;17.66;100.00;99982.50;4933823;29;20479;-86
2023/07/31 09:58:35;;;;;;;1.05;1.05;;;;;;;17.61;100.00;99981.88;4930920;29;20043;-81
2023/07/31 10:01:03;;;;;;;2.75;1.67;;;;;;;17.59;100.00;99967.00;4933521;29;20047;-81
2023/07/31 10:03:32;;;;;;;2.65;1.58;;;;;;;17.65;100.00;99967.56;4942319;29;20031;-81
2023/07/31 10:06:03;;;;;;;2.63;1.20;;;;;;;17.67;100.00;99964.84;4939017;29;20047;-80
2023/07/31 10:08:33;;;;;;;4.03;1.33;;;;;;;17.72;100.00;99956.66;4937660;29;20035;-84
2023/07/31 10:11:03;;;;;;;2.08;1.25;;;;;;;17.69;100.00;99969.13;4936270;29;20058;-81
2023/07/31 10:13:31;;;;;;;1.38;1.05;;;;;;;17.72;100.00;99946.94;4917348;29;20051;-81
2023/07/31 10:16:01;;;;;;;0.85;0.85;;;;;;;17.75;100.00;99961.81;4919038;29;20054;-81
2023/07/31 10:18:28;;;;;;;1.92;1.30;;;;;;;17.84;100.00;99956.03;4921280;29;20040;-84
2023/07/31 10:20:56;;;;;;;3.20;1.10;;;;;;;17.90;100.00;99965.47;4919212;29;20035;-81
2023/07/31 10:23:25;;;;;;;2.30;1.35;;;;;;;17.94;100.00;99951.16;4931340;29;20166;-81
2023/07/31 10:25:57;;;;;;;2.10;1.95;;;;;;;18.02;100.00;99949.84;4949194;29;20126;-82
2023/07/31 10:28:25;;;;;;;2.38;1.00;;;;;;;18.02;100.00;99949.84;4921422;29;20099;-81
2023/07/31 10:30:55;;;;;;;0.95;0.95;;;;;;;18.07;100.00;99954.91;4918371;28;20402;-81
2023/07/31 10:33:26;;;;;;;1.27;1.27;;;;;;;18.06;100.00;99947.91;4935986;29;20059;-83
2023/07/31 10:36:16;;;;;;;1.73;1.40;;;;;;;18.10;100.00;99948.59;4935967;28;20105;-81
2023/07/31 10:38:44;;;;;;;1.10;1.00;;;;;;;18.10;100.00;99940.66;4929878;28;20043;-84
2023/07/31 10:42:16;;;;;;;0.90;0.90;;;;;;;18.26;100.00;99943.34;4928899;29;20071;-81
2023/07/31 10:44:48;;;;;;;1.20;1.08;;;;;;;18.48;100.00;99925.38;4949604;28;20058;-82
2023/07/31 10:47:18;;;;;;;1.70;1.60;;;;;;;18.48;100.00;99933.31;4937992;28;20525;-85
2023/07/31 10:49:47;;;;;;;2.03;0.93;;;;;;;18.40;100.00;99937.34;4941678;29;20098;-81
2023/07/31 10:52:15;;;;;;;1.58;0.77;;;;;;;18.34;100.00;99933.19;4952170;28;20049;-84
2023/07/31 10:54:41;;;;;;;2.05;1.23;;;;;;;18.33;100.00;99928.88;4928920;29;20039;-83
2023/07/31 10:57:21;;;;;;;1.13;1.08;;;;;;;18.36;100.00;99928.69;4939644;29;20083;-85
2023/07/31 11:00:00;;;;;;;;;;;;;;;;;;;;;
2023/07/31 11:02:31;;;;;;;1.17;1.08;;;;;;;18.35;100.00;99921.66;4919813;29;20547;-83
2023/07/31 11:05:11;;;;;;;2.50;1.15;;;;;;;18.31;100.00;99917.47;4934415;29;20035;-83
2023/07/31 11:07:51;;;;;;;1.20;1.20;;;;;;;18.42;100.00;99920.41;4926930;29;20106;-81
2023/07/31 11:10:25;;;;;;;1.92;1.25;;;;;;;18.49;100.00;99919.13;4931844;29;20066;-81
2023/07/31 11:12:53;;;;;;;1.17;1.10;;;;;;;18.59;100.00;99918.63;4937211;29;20042;-81
2023/07/31 11:15:23;;;;;;;0.98;0.88;;;;;;;18.73;100.00;99918.75;4939605;29;20047;-81
2023/07/31 11:17:53;;;;;;;3.70;1.13;;;;;;;18.87;100.00;99907.38;4944433;28;20111;-81
2023/07/31 11:20:23;;;;;;;2.65;1.30;;;;;;;18.95;100.00;99918.44;4923403;29;20071;-84
2023/07/31 11:22:52;;;;;;;1.30;0.85;;;;;;;19.01;100.00;99909.31;4959103;28;20134;-82
2023/07/31 11:25:19;;;;;;;1.40;1.15;;;;;;;19.02;100.00;99911.03;4946028;29;20071;-81